Time;durP1;ratioP1;P1;durP2;ratioP2;P2;SDS_P1;SDS_P2;PMS_P1;PMS_P2;Temp;Humidity;BMP_temperature;BMP_pressure;BME280_temperature;BME280_humidity;BME280_pressure;Samples;Min_cycle;Max_cycle;Signal;HPM_P1;HPM_P2
2023/09/10 00:01:04;;;;;;;12.77;11.80;;;22.90;27.80;;;;;;4925587;29;20292;-76
2023/09/10 00:03:32;;;;;;;12.00;11.00;;;22.90;27.80;;;;;;4931072;29;20200;-77
2023/09/10 00:05:59;;;;;;;13.87;12.57;;;22.80;27.80;;;;;;4947023;29;20428;-77
2023/09/10 00:08:25;;;;;;;12.73;11.80;;;22.90;28.60;;;;;;4931081;29;20515;-77
2023/09/10 00:10:51;;;;;;;13.47;12.57;;;22.80;28.00;;;;;;4930787;29;20427;-78
2023/09/10 00:13:17;;;;;;;13.30;12.10;;;22.80;28.10;;;;;;4943502;29;20686;-76
2023/09/10 00:15:42;;;;;;;14.97;12.90;;;22.80;28.20;;;;;;4928482;29;20645;-76
2023/09/10 00:18:08;;;;;;;14.27;12.97;;;22.80;28.50;;;;;;4929520;29;20621;-77
2023/09/10 00:20:33;;;;;;;16.57;14.90;;;22.80;28.70;;;;;;4942708;29;20187;-77
2023/09/10 00:22:59;;;;;;;14.17;12.80;;;22.70;28.90;;;;;;4929392;29;20211;-75
2023/09/10 00:25:25;;;;;;;14.83;13.63;;;22.80;29.10;;;;;;4928147;29;20246;-77
2023/09/10 00:27:50;;;;;;;14.67;13.60;;;22.70;29.20;;;;;;4929496;29;20564;-75
2023/09/10 00:30:16;;;;;;;16.13;14.73;;;22.70;29.30;;;;;;4928567;29;20250;-76
2023/09/10 00:32:41;;;;;;;15.20;13.93;;;22.70;29.40;;;;;;4926116;29;20200;-76
2023/09/10 00:35:08;;;;;;;15.13;13.90;;;22.70;29.40;;;;;;4927920;29;20252;-79
2023/09/10 00:37:34;;;;;;;16.93;14.20;;;22.70;29.40;;;;;;4931242;29;20215;-78
2023/09/10 00:39:59;;;;;;;16.87;15.17;;;22.70;29.50;;;;;;4931621;29;20515;-78
2023/09/10 00:42:25;;;;;;;14.87;13.67;;;22.70;29.50;;;;;;4928986;29;20212;-77
2023/09/10 00:44:50;;;;;;;15.40;14.17;;;22.70;29.50;;;;;;4942460;29;20216;-78
2023/09/10 00:47:16;;;;;;;15.37;14.17;;;22.70;29.60;;;;;;4929263;29;20209;-78
2023/09/10 00:49:44;;;;;;;15.90;14.63;;;22.60;29.60;;;;;;4931148;29;20905;-76
2023/09/10 00:52:11;;;;;;;16.33;14.80;;;22.60;29.90;;;;;;4932098;29;20184;-79
2023/09/10 00:54:37;;;;;;;15.23;13.93;;;22.60;29.90;;;;;;4944460;29;20460;-78
2023/09/10 00:57:03;;;;;;;17.07;15.50;;;22.60;30.00;;;;;;4930950;29;20455;-78
2023/09/10 00:59:30;;;;;;;15.90;14.70;;;22.50;30.00;;;;;;4929647;29;20861;-78
2023/09/10 01:01:57;;;;;;;16.53;15.30;;;22.60;30.00;;;;;;4930895;29;20467;-78
2023/09/10 01:04:23;;;;;;;16.10;14.90;;;22.60;30.00;;;;;;4929790;29;20463;-78
2023/09/10 01:06:51;;;;;;;14.97;13.90;;;22.60;30.10;;;;;;4922817;29;20541;-78
2023/09/10 01:09:16;;;;;;;17.07;16.00;;;22.60;30.00;;;;;;4930814;29;20215;-76
2023/09/10 01:11:57;;;;;;;16.10;14.70;;;22.60;30.20;;;;;;4925241;29;20476;-76
2023/09/10 01:14:31;;;;;;;16.93;15.60;;;22.50;30.30;;;;;;4926117;29;20279;-77
2023/09/10 01:17:17;;;;;;;17.10;15.77;;;22.60;30.30;;;;;;4943372;29;20454;-76
2023/09/10 01:19:52;;;;;;;16.43;15.13;;;22.50;30.20;;;;;;4915963;29;20438;-75
2023/09/10 01:22:32;;;;;;;15.77;14.47;;;22.50;30.20;;;;;;4925742;29;20463;-76
2023/09/10 01:24:59;;;;;;;17.50;16.07;;;22.50;30.60;;;;;;4931874;29;20432;-76
2023/09/10 01:27:24;;;;;;;15.53;14.43;;;22.50;30.80;;;;;;4930638;29;20451;-77
2023/09/10 01:29:50;;;;;;;15.07;13.77;;;22.50;30.70;;;;;;4928148;29;20467;-76
2023/09/10 01:32:29;;;;;;;15.13;14.13;;;22.40;30.50;;;;;;4928354;29;20712;-76
2023/09/10 01:35:27;;;;;;;16.30;14.70;;;22.30;31.00;;;;;;4933558;29;20680;-77
2023/09/10 01:38:24;;;;;;;15.47;14.10;;;22.40;31.10;;;;;;4887625;29;20462;-77
2023/09/10 01:41:02;;;;;;;16.03;14.63;;;22.40;31.20;;;;;;4917400;29;20429;-77
2023/09/10 01:43:29;;;;;;;15.20;14.10;;;22.40;31.20;;;;;;4925510;29;20460;-77
2023/09/10 01:45:55;;;;;;;15.17;14.17;;;22.30;31.20;;;;;;4928510;29;20428;-77
2023/09/10 01:48:21;;;;;;;16.80;15.10;;;22.40;31.10;;;;;;4927138;29;20507;-77
2023/09/10 01:50:46;;;;;;;15.87;14.67;;;22.30;31.10;;;;;;4925513;29;20252;-77
2023/09/10 01:53:14;;;;;;;16.17;15.13;;;22.30;31.60;;;;;;4924466;29;20181;-78
2023/09/10 01:55:39;;;;;;;16.37;15.07;;;22.30;31.90;;;;;;4928235;29;20211;-77
2023/09/10 01:58:05;;;;;;;15.57;14.30;;;22.30;31.90;;;;;;4922395;29;20495;-76
2023/09/10 02:00:30;;;;;;;15.70;14.33;;;22.30;31.90;;;;;;4924912;29;20216;-76
2023/09/10 02:02:56;;;;;;;17.73;15.90;;;22.30;31.90;;;;;;4927699;29;20204;-76
2023/09/10 02:05:22;;;;;;;15.87;14.53;;;22.30;31.90;;;;;;4927002;29;20184;-76
2023/09/10 02:07:47;;;;;;;15.33;14.13;;;22.30;31.90;;;;;;4924352;29;20237;-76
2023/09/10 02:10:13;;;;;;;16.33;15.03;;;22.30;31.80;;;;;;4923217;29;20177;-77
2023/09/10 02:12:38;;;;;;;15.80;14.40;;;22.30;31.50;;;;;;4926077;29;20345;-76
2023/09/10 02:15:06;;;;;;;17.00;15.60;;;22.30;31.30;;;;;;4927555;29;20184;-77
2023/09/10 02:17:33;;;;;;;14.90;13.93;;;22.30;31.20;;;;;;4933854;29;20212;-77
2023/09/10 02:19:58;;;;;;;16.70;15.10;;;22.30;31.00;;;;;;4927577;29;20848;-77
2023/09/10 02:22:24;;;;;;;16.27;15.07;;;22.30;31.00;;;;;;4926789;29;20558;-77
2023/09/10 02:24:51;;;;;;;16.17;15.07;;;22.30;30.90;;;;;;4924522;29;20228;-77
2023/09/10 02:27:17;;;;;;;15.47;14.30;;;22.30;31.10;;;;;;4924644;29;20211;-77
2023/09/10 02:29:42;;;;;;;15.77;14.57;;;22.30;31.10;;;;;;4926501;29;20751;-78
2023/09/10 02:32:08;;;;;;;15.70;14.60;;;22.30;31.10;;;;;;4927570;29;20239;-77
2023/09/10 02:34:33;;;;;;;15.53;14.43;;;22.20;31.40;;;;;;4925112;29;20196;-76
2023/09/10 02:36:59;;;;;;;15.57;14.37;;;22.20;31.40;;;;;;4923617;29;20204;-76
2023/09/10 02:39:25;;;;;;;15.70;14.60;;;22.20;31.70;;;;;;4924214;29;20184;-76
2023/09/10 02:41:50;;;;;;;15.63;14.30;;;22.20;31.80;;;;;;4927949;29;20519;-78
2023/09/10 02:44:16;;;;;;;15.90;14.80;;;22.20;31.80;;;;;;4928437;29;20210;-77
2023/09/10 02:46:42;;;;;;;15.20;14.10;;;22.10;31.70;;;;;;4928791;29;20720;-78
2023/09/10 02:49:07;;;;;;;15.40;14.13;;;22.10;31.70;;;;;;4926724;29;20553;-78
2023/09/10 02:51:33;;;;;;;13.90;13.00;;;22.10;31.70;;;;;;4928504;29;20219;-78
2023/09/10 02:53:58;;;;;;;15.50;13.87;;;22.20;31.80;;;;;;4931731;29;20191;-77
2023/09/10 02:56:24;;;;;;;15.00;13.87;;;22.10;31.70;;;;;;4931753;29;20188;-78
2023/09/10 02:58:50;;;;;;;15.60;14.50;;;22.10;31.70;;;;;;4926970;29;20653;-77
2023/09/10 03:01:15;;;;;;;15.37;14.27;;;22.10;31.70;;;;;;4940179;29;20196;-77
2023/09/10 03:03:41;;;;;;;15.40;14.33;;;22.10;31.70;;;;;;4929903;29;20543;-78
2023/09/10 03:06:13;;;;;;;14.77;13.77;;;22.00;31.60;;;;;;4929342;29;20180;-78
2023/09/10 03:08:39;;;;;;;14.77;13.60;;;22.00;31.70;;;;;;4921595;29;20244;-78
2023/09/10 03:11:05;;;;;;;15.80;14.60;;;22.00;32.30;;;;;;4929357;29;20939;-78
2023/09/10 03:13:30;;;;;;;15.93;14.63;;;22.00;31.60;;;;;;4928049;29;20435;-77
2023/09/10 03:15:56;;;;;;;17.03;15.43;;;22.00;31.80;;;;;;4925766;29;20471;-78
2023/09/10 03:18:21;;;;;;;15.13;14.03;;;21.90;32.10;;;;;;4925533;29;20243;-78
2023/09/10 03:20:47;;;;;;;14.50;13.50;;;21.90;32.20;;;;;;4932539;29;20258;-77
2023/09/10 03:23:13;;;;;;;15.27;14.27;;;21.90;32.20;;;;;;4924743;29;20215;-76
2023/09/10 03:25:39;;;;;;;16.40;14.97;;;21.90;32.00;;;;;;4930046;29;20195;-78
2023/09/10 03:28:05;;;;;;;14.50;13.47;;;21.80;32.10;;;;;;4932037;29;20239;-77
2023/09/10 03:30:31;;;;;;;15.07;13.87;;;21.80;32.20;;;;;;4930822;29;20752;-77
2023/09/10 03:32:57;;;;;;;16.90;15.50;;;21.80;32.20;;;;;;4930602;29;20440;-78
2023/09/10 03:35:22;;;;;;;14.53;13.43;;;21.80;32.20;;;;;;4931910;29;20596;-78
2023/09/10 03:37:48;;;;;;;15.87;14.60;;;21.80;32.50;;;;;;4943536;29;20230;-76
2023/09/10 03:40:14;;;;;;;14.27;13.30;;;21.80;32.70;;;;;;4926767;29;20267;-77
2023/09/10 03:42:39;;;;;;;16.57;15.30;;;21.70;32.70;;;;;;4928872;29;20784;-77
2023/09/10 03:45:06;;;;;;;15.80;14.37;;;21.70;32.80;;;;;;4946093;29;20548;-77
2023/09/10 03:47:33;;;;;;;15.20;13.90;;;21.70;33.10;;;;;;4929825;29;20604;-77
2023/09/10 03:49:59;;;;;;;14.07;13.00;;;21.70;33.30;;;;;;4942817;29;20789;-78
2023/09/10 03:52:25;;;;;;;15.57;14.57;;;21.70;33.20;;;;;;4928496;29;20456;-77
2023/09/10 03:54:50;;;;;;;14.87;13.53;;;21.70;33.20;;;;;;4927209;29;20425;-77
2023/09/10 03:57:16;;;;;;;14.73;13.63;;;21.70;33.10;;;;;;4929036;29;20236;-77
2023/09/10 03:59:42;;;;;;;16.40;14.73;;;21.70;33.10;;;;;;4929639;29;20259;-77
2023/09/10 04:02:08;;;;;;;14.87;13.87;;;21.70;33.00;;;;;;4924511;29;20677;-77
2023/09/10 04:04:33;;;;;;;14.70;13.57;;;21.70;33.30;;;;;;4927806;29;20185;-77
2023/09/10 04:06:59;;;;;;;15.30;14.30;;;21.70;33.10;;;;;;4944591;29;20203;-77
2023/09/10 04:09:25;;;;;;;14.40;13.17;;;21.70;33.00;;;;;;4930019;29;20192;-77
2023/09/10 04:11:51;;;;;;;15.60;14.20;;;21.70;32.90;;;;;;4927199;29;20643;-77
2023/09/10 04:14:16;;;;;;;14.60;13.30;;;21.70;32.80;;;;;;4926852;29;20468;-77
2023/09/10 04:16:42;;;;;;;15.83;14.53;;;21.70;33.10;;;;;;4928998;29;20339;-77
2023/09/10 04:19:08;;;;;;;15.03;13.93;;;21.70;33.10;;;;;;4944646;29;20212;-77
2023/09/10 04:21:36;;;;;;;14.07;13.10;;;21.70;32.90;;;;;;4928798;29;20188;-75
2023/09/10 04:24:02;;;;;;;16.47;15.27;;;21.70;33.10;;;;;;4941357;29;20212;-77
2023/09/10 04:26:27;;;;;;;15.10;13.73;;;21.60;33.00;;;;;;4926264;29;20425;-76
2023/09/10 04:28:53;;;;;;;15.67;14.47;;;21.60;33.00;;;;;;4930222;29;20648;-76
2023/09/10 04:31:18;;;;;;;14.83;13.80;;;21.60;32.80;;;;;;4928854;29;20216;-76
2023/09/10 04:33:44;;;;;;;15.27;14.00;;;21.60;32.90;;;;;;4926966;29;20192;-77
2023/09/10 04:36:10;;;;;;;15.73;14.47;;;21.60;33.10;;;;;;4921554;29;20197;-77
2023/09/10 04:38:36;;;;;;;16.57;15.33;;;21.60;33.10;;;;;;4920852;29;20213;-77
2023/09/10 04:41:02;;;;;;;15.37;14.03;;;21.60;33.40;;;;;;4925285;29;20436;-75
2023/09/10 04:43:27;;;;;;;15.17;14.13;;;21.50;33.30;;;;;;4933421;29;20211;-76
2023/09/10 04:45:53;;;;;;;15.03;14.00;;;21.50;33.40;;;;;;4925668;29;20228;-77
2023/09/10 04:48:18;;;;;;;14.73;13.63;;;21.50;33.40;;;;;;4925857;29;20204;-76
2023/09/10 04:50:45;;;;;;;15.30;13.90;;;21.50;33.60;;;;;;4927485;29;20685;-77
2023/09/10 04:53:13;;;;;;;15.03;13.93;;;21.50;33.80;;;;;;4929994;29;20192;-77
2023/09/10 04:55:39;;;;;;;15.20;13.97;;;21.50;33.70;;;;;;4929918;29;20440;-77
2023/09/10 04:58:04;;;;;;;14.80;13.80;;;21.50;33.60;;;;;;4944137;29;20467;-77
2023/09/10 05:00:30;;;;;;;15.10;13.70;;;21.60;33.40;;;;;;4928843;29;20529;-77
2023/09/10 05:02:56;;;;;;;14.60;13.47;;;21.50;33.40;;;;;;4926439;29;20228;-77
2023/09/10 05:05:21;;;;;;;15.50;14.30;;;21.50;33.70;;;;;;4926395;29;20496;-77
2023/09/10 05:07:50;;;;;;;16.70;15.30;;;21.40;33.90;;;;;;4928946;29;20581;-77
2023/09/10 05:10:16;;;;;;;15.70;14.50;;;21.40;34.00;;;;;;4922956;29;20597;-76
2023/09/10 05:12:42;;;;;;;15.60;14.60;;;21.40;33.90;;;;;;4927583;29;20436;-77
2023/09/10 05:15:10;;;;;;;16.70;15.30;;;21.40;33.80;;;;;;4931152;29;20847;-76
2023/09/10 15:42:57;;;;;;;9.40;8.70;;;27.70;11.00;;;;;;5246945;23;20543;-81
2023/09/10 15:45:23;;;;;;;10.93;10.03;;;27.70;11.10;;;;;;4939413;29;20416;-80
2023/09/10 15:47:49;;;;;;;9.73;9.03;;;27.70;10.80;;;;;;4951308;29;20204;-78
2023/09/10 15:50:14;;;;;;;9.63;8.93;;;27.70;10.80;;;;;;4936726;29;20491;-79
2023/09/10 15:52:40;;;;;;;10.33;9.53;;;27.70;11.10;;;;;;4952097;29;20614;-78
2023/09/10 15:55:09;;;;;;;10.33;9.00;;;27.70;10.70;;;;;;4936692;29;20180;-79
2023/09/10 15:57:34;;;;;;;13.07;10.17;;;27.70;10.60;;;;;;4937110;29;20279;-78
2023/09/10 16:00:07;;;;;;;10.20;9.30;;;27.70;11.30;;;;;;4954117;29;20487;-80
2023/09/10 16:02:38;;;;;;;9.10;8.30;;;27.70;11.20;;;;;;4946325;29;20739;-79
2023/09/10 16:05:07;;;;;;;9.63;8.83;;;27.70;10.90;;;;;;4937464;29;20438;-80
2023/09/10 16:07:34;;;;;;;9.83;9.03;;;27.60;10.90;;;;;;4939004;29;20443;-80
2023/09/10 16:10:00;;;;;;;8.30;7.70;;;27.70;11.10;;;;;;4939186;29;20424;-79
2023/09/10 16:12:25;;;;;;;9.83;9.10;;;27.60;10.90;;;;;;4939183;29;20431;-78
2023/09/10 16:14:51;;;;;;;9.57;8.73;;;27.60;10.80;;;;;;4938954;29;20432;-79
2023/09/10 16:17:17;;;;;;;8.83;8.20;;;27.60;11.00;;;;;;4937754;29;20707;-79
2023/09/10 16:19:42;;;;;;;11.10;10.10;;;27.60;11.20;;;;;;4953176;29;20192;-78
2023/09/10 16:22:08;;;;;;;12.47;11.17;;;27.50;11.30;;;;;;4938439;29;20199;-79
2023/09/10 16:24:35;;;;;;;9.63;9.03;;;27.50;11.20;;;;;;4939227;29;20224;-79
2023/09/10 16:27:02;;;;;;;9.30;8.50;;;27.50;11.30;;;;;;4939609;29;20180;-79
2023/09/10 16:29:27;;;;;;;9.43;8.73;;;27.50;11.20;;;;;;4940225;29;20455;-79
2023/09/10 16:31:53;;;;;;;10.30;9.40;;;27.40;11.30;;;;;;4938295;29;20428;-78
2023/09/10 16:34:18;;;;;;;9.97;9.20;;;27.50;11.40;;;;;;4945972;29;20206;-78
2023/09/10 16:36:44;;;;;;;11.00;10.20;;;27.40;11.40;;;;;;4938078;29;20216;-78
2023/09/10 16:39:09;;;;;;;11.00;10.10;;;27.30;11.50;;;;;;4936091;29;20232;-76
2023/09/10 16:41:35;;;;;;;11.23;9.87;;;27.40;11.70;;;;;;4951316;29;20587;-78
2023/09/10 16:44:01;;;;;;;9.80;9.20;;;27.30;11.80;;;;;;4942151;29;20280;-79
2023/09/10 16:46:27;;;;;;;9.50;8.70;;;27.30;11.90;;;;;;4939269;29;20203;-79
2023/09/10 16:48:53;;;;;;;9.30;8.53;;;27.30;12.00;;;;;;4953553;29;20534;-78
2023/09/10 16:51:19;;;;;;;10.63;9.83;;;27.30;12.10;;;;;;4947404;29;20475;-79
2023/09/10 16:53:45;;;;;;;10.10;9.37;;;27.20;12.00;;;;;;4946391;29;20821;-78
2023/09/10 16:56:11;;;;;;;10.40;9.60;;;27.20;12.30;;;;;;4955626;29;20203;-79
2023/09/10 16:58:36;;;;;;;10.17;9.37;;;27.20;12.40;;;;;;4945185;29;20455;-80
2023/09/10 17:01:02;;;;;;;10.20;9.40;;;27.10;12.40;;;;;;4946378;29;20242;-80
2023/09/10 17:03:28;;;;;;;11.10;10.00;;;27.10;12.80;;;;;;4962018;29;20214;-78
2023/09/10 17:05:53;;;;;;;9.90;9.00;;;27.10;12.70;;;;;;4943416;29;20216;-77
2023/09/10 17:08:19;;;;;;;9.67;9.07;;;27.00;12.80;;;;;;4943348;29;20235;-77
2023/09/10 17:10:44;;;;;;;9.93;9.23;;;27.00;13.10;;;;;;4942098;29;20201;-79
2023/09/10 17:13:15;;;;;;;10.17;9.37;;;27.00;13.10;;;;;;4947140;29;20196;-79
2023/09/10 17:15:40;;;;;;;15.80;14.30;;;27.00;13.10;;;;;;4946205;29;20206;-80
2023/09/10 17:18:11;;;;;;;17.27;15.57;;;26.90;13.10;;;;;;4974085;23;20488;-75
2023/09/10 17:20:41;;;;;;;10.83;9.77;;;26.90;13.20;;;;;;4947903;29;20171;-75
2023/09/10 17:23:33;;;;;;;11.17;9.93;;;26.90;13.40;;;;;;4956761;28;20467;-75
2023/09/10 17:26:19;;;;;;;10.50;9.70;;;26.80;13.60;;;;;;4965908;29;20479;-75
2023/09/10 17:28:47;;;;;;;15.00;9.17;;;26.80;13.70;;;;;;4928056;29;20972;-80
2023/09/10 17:31:14;;;;;;;11.10;10.00;;;26.70;13.90;;;;;;4927939;29;20951;-77
2023/09/10 17:33:40;;;;;;;11.03;10.23;;;26.70;14.20;;;;;;4934856;29;20424;-77
2023/09/10 17:36:06;;;;;;;10.70;9.90;;;26.60;14.50;;;;;;4934939;29;20934;-74
2023/09/10 17:38:31;;;;;;;28.23;23.30;;;26.60;14.90;;;;;;4934946;29;20200;-76
2023/09/10 17:40:57;;;;;;;11.80;10.70;;;26.50;15.20;;;;;;4933836;29;20184;-77
2023/09/10 17:43:22;;;;;;;10.30;9.20;;;26.40;15.20;;;;;;4933843;29;20247;-77
2023/09/10 17:45:48;;;;;;;10.90;9.97;;;26.40;15.30;;;;;;4935184;29;20266;-76
2023/09/10 17:48:14;;;;;;;12.23;10.90;;;26.30;15.40;;;;;;4935667;29;20214;-76
2023/09/10 17:50:39;;;;;;;11.53;10.73;;;26.30;15.90;;;;;;4942529;29;20200;-77
2023/09/10 17:53:05;;;;;;;10.33;9.63;;;26.20;15.90;;;;;;4935172;29;20556;-79
2023/09/10 17:55:30;;;;;;;15.67;11.00;;;26.10;16.00;;;;;;4935221;29;20214;-76
2023/09/10 17:57:56;;;;;;;10.90;9.80;;;26.10;16.10;;;;;;4936275;29;20200;-75
2023/09/10 18:00:22;;;;;;;9.90;9.10;;;26.10;16.00;;;;;;4935198;29;20574;-76
2023/09/10 18:02:48;;;;;;;10.33;9.53;;;26.00;16.10;;;;;;4934732;29;20594;-76
2023/09/10 18:05:14;;;;;;;11.03;9.60;;;26.00;16.00;;;;;;4934602;29;20435;-76
2023/09/10 18:07:39;;;;;;;9.90;9.30;;;26.10;16.70;;;;;;4934703;29;20764;-76
2023/09/10 18:10:05;;;;;;;10.03;9.33;;;25.90;16.20;;;;;;4934369;29;20210;-75
2023/09/10 18:12:31;;;;;;;10.73;9.90;;;25.90;16.40;;;;;;4932949;29;20203;-74
2023/09/10 18:14:57;;;;;;;10.80;10.10;;;25.90;16.70;;;;;;4934754;29;20483;-75
2023/09/10 18:17:22;;;;;;;11.20;10.30;;;25.80;16.90;;;;;;4934482;29;20436;-74
2023/09/10 18:19:48;;;;;;;10.87;9.97;;;25.80;16.90;;;;;;4934371;29;20227;-74
2023/09/10 18:22:17;;;;;;;11.30;10.30;;;25.70;16.80;;;;;;4934500;29;20199;-75
2023/09/10 18:24:43;;;;;;;11.20;10.40;;;25.70;16.80;;;;;;4934952;29;20180;-74
2023/09/10 18:27:09;;;;;;;10.07;9.27;;;25.70;16.80;;;;;;4934931;29;20500;-74
2023/09/10 18:29:34;;;;;;;12.50;11.40;;;25.60;16.80;;;;;;4934221;29;20542;-75
2023/09/10 18:32:00;;;;;;;11.33;10.43;;;25.60;17.20;;;;;;4934441;29;20544;-75
2023/09/10 18:34:26;;;;;;;15.53;11.50;;;25.60;17.40;;;;;;4933601;29;20203;-76
2023/09/10 18:36:51;;;;;;;12.07;11.10;;;25.60;18.10;;;;;;4949043;29;20194;-74
2023/09/10 18:39:17;;;;;;;13.60;12.40;;;25.40;18.40;;;;;;4932922;29;20219;-75
2023/09/10 18:41:43;;;;;;;11.63;10.57;;;25.50;18.60;;;;;;4948895;29;20184;-76
2023/09/10 18:44:08;;;;;;;11.40;10.40;;;25.40;18.70;;;;;;4934157;29;20542;-76
2023/09/10 18:46:36;;;;;;;11.83;10.80;;;25.40;18.80;;;;;;4948309;29;20180;-75
2023/09/10 18:49:01;;;;;;;12.73;11.57;;;25.30;18.90;;;;;;4933385;29;20203;-75
2023/09/10 18:51:27;;;;;;;12.10;11.10;;;25.30;18.80;;;;;;4933202;29;20419;-75
2023/09/10 18:53:53;;;;;;;11.40;10.40;;;25.30;18.90;;;;;;4934209;29;20176;-76
2023/09/10 18:56:18;;;;;;;12.10;10.90;;;25.30;19.10;;;;;;4933779;29;20203;-76
2023/09/10 18:58:44;;;;;;;12.50;11.40;;;25.30;19.20;;;;;;4936605;29;20262;-77
2023/09/10 19:01:09;;;;;;;11.40;10.53;;;25.20;19.50;;;;;;4947582;29;20648;-76
2023/09/10 19:03:35;;;;;;;11.90;10.90;;;25.20;19.50;;;;;;4936278;29;20692;-76
2023/09/10 19:06:01;;;;;;;11.47;10.47;;;25.10;19.50;;;;;;4940875;29;20180;-78
2023/09/10 19:08:27;;;;;;;12.30;11.30;;;25.10;19.70;;;;;;4937977;29;20216;-77
2023/09/10 19:10:54;;;;;;;11.23;10.17;;;25.10;19.80;;;;;;4937275;29;20515;-77
2023/09/10 19:13:21;;;;;;;12.70;11.50;;;25.00;19.90;;;;;;4937429;29;20436;-77
2023/09/10 19:15:47;;;;;;;13.30;12.13;;;25.00;20.00;;;;;;4938082;29;20435;-78
2023/09/10 19:18:13;;;;;;;13.20;11.33;;;25.00;20.10;;;;;;4952505;29;20529;-76
2023/09/10 19:20:39;;;;;;;11.63;10.63;;;25.00;20.10;;;;;;4937752;29;20192;-78
2023/09/10 19:23:06;;;;;;;11.23;10.30;;;24.90;20.00;;;;;;4938123;29;20470;-77
2023/09/10 19:25:32;;;;;;;12.23;11.20;;;24.90;19.90;;;;;;4936028;29;20431;-77
2023/09/10 19:28:00;;;;;;;11.20;10.10;;;24.80;19.40;;;;;;4936667;29;20452;-75
2023/09/10 19:30:26;;;;;;;9.97;9.17;;;24.80;19.00;;;;;;4936425;29;20270;-77
2023/09/10 19:32:52;;;;;;;10.87;9.97;;;24.80;19.00;;;;;;4937148;29;20852;-77
2023/09/10 19:35:17;;;;;;;11.60;10.70;;;24.70;19.00;;;;;;4936933;29;20444;-76
2023/09/10 19:37:43;;;;;;;12.70;11.70;;;24.70;19.20;;;;;;4935836;29;20290;-75
2023/09/10 19:40:09;;;;;;;12.23;10.93;;;24.70;19.40;;;;;;4939562;29;20256;-75
2023/09/10 19:42:36;;;;;;;12.77;11.73;;;24.70;19.60;;;;;;4939646;29;20311;-76
2023/09/10 19:45:03;;;;;;;12.20;11.37;;;24.70;19.80;;;;;;4953381;29;20480;-75
2023/09/10 19:47:29;;;;;;;11.93;11.03;;;24.60;19.80;;;;;;4938389;29;20184;-75
2023/09/10 19:49:54;;;;;;;13.03;10.50;;;24.60;19.90;;;;;;4937847;29;20834;-75
2023/09/10 19:52:20;;;;;;;12.17;11.07;;;24.60;20.10;;;;;;4943305;29;20843;-76
2023/09/10 19:54:47;;;;;;;12.93;12.03;;;24.60;20.40;;;;;;4936378;29;20188;-76
2023/09/10 19:57:12;;;;;;;10.60;9.90;;;24.50;20.40;;;;;;4936592;29;20263;-76
2023/09/10 19:59:38;;;;;;;13.17;12.17;;;24.50;20.30;;;;;;4935526;29;20935;-75
2023/09/10 20:02:04;;;;;;;11.20;10.30;;;24.50;20.50;;;;;;4933999;29;20200;-77
2023/09/10 20:04:30;;;;;;;12.20;11.10;;;24.50;20.50;;;;;;4936511;29;20254;-75
2023/09/10 20:06:58;;;;;;;12.43;11.37;;;24.50;20.10;;;;;;4950634;28;20432;-77
2023/09/10 20:09:24;;;;;;;11.93;11.03;;;24.50;20.00;;;;;;4931399;29;21822;-76
2023/09/10 20:11:50;;;;;;;10.37;9.33;;;24.50;19.70;;;;;;4934009;29;20427;-77
2023/09/10 20:14:15;;;;;;;10.43;9.63;;;24.40;19.20;;;;;;4935461;29;20459;-77
2023/09/10 20:16:41;;;;;;;11.13;10.10;;;24.50;19.50;;;;;;4935603;29;20655;-77
2023/09/10 20:19:06;;;;;;;10.50;9.60;;;24.40;19.40;;;;;;4935251;29;20219;-76
2023/09/10 20:21:32;;;;;;;12.00;11.10;;;24.40;19.50;;;;;;4934103;29;20196;-77
2023/09/10 20:23:57;;;;;;;11.37;10.47;;;24.30;19.50;;;;;;4950873;29;20215;-76
2023/09/10 20:26:23;;;;;;;11.03;10.33;;;24.40;19.50;;;;;;4932402;29;20215;-77
2023/09/10 20:28:49;;;;;;;9.77;8.90;;;24.40;19.10;;;;;;4933527;29;20208;-77
2023/09/10 20:31:15;;;;;;;11.07;10.17;;;24.40;19.20;;;;;;4944850;29;20435;-77
2023/09/10 20:33:40;;;;;;;10.60;9.90;;;24.30;19.70;;;;;;4934234;29;20202;-75
2023/09/10 20:36:07;;;;;;;10.90;10.00;;;24.30;19.30;;;;;;4934384;29;20266;-77
2023/09/10 20:38:33;;;;;;;10.40;9.70;;;24.20;19.40;;;;;;4933061;29;20215;-76
2023/09/10 20:40:58;;;;;;;11.57;10.70;;;24.20;19.50;;;;;;4935748;29;20854;-80
2023/09/10 20:43:25;;;;;;;13.57;12.67;;;24.20;19.60;;;;;;4937188;29;20684;-74
2023/09/10 20:45:54;;;;;;;11.40;10.53;;;24.20;19.80;;;;;;4934076;29;20179;-75
2023/09/10 20:48:21;;;;;;;11.37;10.37;;;24.10;20.10;;;;;;4933673;29;20451;-75
2023/09/10 20:50:46;;;;;;;11.43;10.60;;;24.10;20.20;;;;;;4934686;29;20518;-76
2023/09/10 20:53:12;;;;;;;10.20;9.37;;;24.10;20.20;;;;;;4935109;29;20859;-78
2023/09/10 20:55:38;;;;;;;10.30;9.40;;;24.10;20.20;;;;;;4937812;29;20676;-76
2023/09/10 20:58:03;;;;;;;11.60;10.60;;;24.10;20.20;;;;;;4937356;29;20452;-76
2023/09/10 21:00:30;;;;;;;10.83;9.93;;;24.00;20.10;;;;;;4934002;29;20192;-75
2023/09/10 21:02:56;;;;;;;11.90;11.00;;;24.00;20.10;;;;;;4949072;29;20624;-76
2023/09/10 21:05:22;;;;;;;10.53;9.83;;;24.00;20.10;;;;;;4934021;29;20432;-76
2023/09/10 21:07:48;;;;;;;12.77;10.40;;;24.10;19.90;;;;;;4938204;29;20432;-75
2023/09/10 21:10:13;;;;;;;10.33;9.70;;;24.00;19.70;;;;;;4947881;28;20608;-74
2023/09/10 21:12:39;;;;;;;11.77;10.97;;;24.00;19.40;;;;;;4948739;29;20347;-74
2023/09/10 21:15:05;;;;;;;10.70;9.80;;;23.90;19.20;;;;;;4935295;29;20270;-75
2023/09/10 21:17:31;;;;;;;9.60;8.77;;;23.90;19.10;;;;;;4933797;29;20194;-75
2023/09/10 21:19:56;;;;;;;10.67;9.87;;;23.90;19.10;;;;;;4934574;29;20468;-74
2023/09/10 21:22:22;;;;;;;10.60;9.90;;;23.90;19.20;;;;;;4934724;29;20573;-75
2023/09/10 21:24:48;;;;;;;10.50;9.80;;;23.90;19.40;;;;;;4924690;29;20203;-75
2023/09/10 21:27:13;;;;;;;11.00;10.30;;;23.80;19.60;;;;;;4933774;29;20199;-74
2023/09/10 21:29:39;;;;;;;11.10;10.30;;;23.90;19.80;;;;;;4931346;29;20206;-74
2023/09/10 21:32:04;;;;;;;14.43;11.03;;;23.80;20.00;;;;;;4934291;29;20188;-75
2023/09/10 21:34:30;;;;;;;10.63;9.93;;;23.80;20.00;;;;;;4933895;29;20188;-74
2023/09/10 21:36:55;;;;;;;12.33;10.67;;;23.80;20.00;;;;;;4934261;29;20333;-75
2023/09/10 21:39:21;;;;;;;11.07;10.17;;;23.80;20.00;;;;;;4934028;29;20656;-73
2023/09/10 21:41:47;;;;;;;11.07;10.17;;;23.80;20.00;;;;;;4925302;29;20222;-74
2023/09/10 21:44:12;;;;;;;11.07;10.10;;;23.70;20.00;;;;;;4932599;29;20753;-74
2023/09/10 21:46:38;;;;;;;10.47;9.60;;;23.70;19.90;;;;;;4932632;29;20183;-75
2023/09/10 21:49:03;;;;;;;11.17;10.37;;;23.70;19.90;;;;;;4933928;29;20263;-75
2023/09/10 21:51:29;;;;;;;12.27;11.07;;;23.70;20.10;;;;;;4933606;29;20188;-74
2023/09/10 21:53:54;;;;;;;12.20;11.00;;;23.70;20.10;;;;;;4933768;29;20267;-74
2023/09/10 21:56:20;;;;;;;12.07;11.17;;;23.70;20.40;;;;;;4933407;29;20227;-74
2023/09/10 21:58:46;;;;;;;11.27;10.43;;;23.70;20.50;;;;;;4933678;29;20243;-74
2023/09/10 22:01:12;;;;;;;12.63;11.70;;;23.70;20.60;;;;;;4933570;29;20207;-74
2023/09/10 22:03:37;;;;;;;11.30;10.47;;;23.70;20.60;;;;;;4933824;29;20212;-74
2023/09/10 22:06:03;;;;;;;11.50;10.47;;;23.70;20.70;;;;;;4933650;29;20458;-74
2023/09/10 22:08:29;;;;;;;11.87;10.83;;;23.60;20.70;;;;;;4933900;29;20211;-74
2023/09/10 22:11:03;;;;;;;12.60;11.70;;;23.60;20.80;;;;;;4933965;29;20424;-75
2023/09/10 22:13:29;;;;;;;11.33;10.63;;;23.60;20.80;;;;;;4933866;29;20183;-75
2023/09/10 22:15:55;;;;;;;12.40;11.40;;;23.60;20.80;;;;;;4933220;29;20432;-74
2023/09/10 22:18:21;;;;;;;11.27;10.47;;;23.60;20.60;;;;;;4933369;29;20275;-74
2023/09/10 22:20:47;;;;;;;11.10;10.23;;;23.50;20.60;;;;;;4932989;29;20440;-74
2023/09/10 22:23:12;;;;;;;12.33;11.43;;;23.60;20.70;;;;;;4933345;29;20474;-73
2023/09/10 22:25:38;;;;;;;11.53;10.90;;;23.50;20.90;;;;;;4933064;29;20640;-74
2023/09/10 22:28:04;;;;;;;11.53;10.73;;;23.50;20.90;;;;;;4933756;29;20208;-74
2023/09/10 22:30:30;;;;;;;12.60;11.50;;;23.50;21.00;;;;;;4933815;29;20192;-74
2023/09/10 22:32:55;;;;;;;12.13;11.27;;;23.40;21.00;;;;;;4934478;29;20188;-74
2023/09/10 22:35:21;;;;;;;11.63;10.83;;;23.50;21.20;;;;;;4934723;29;20188;-74
2023/09/10 22:37:46;;;;;;;11.80;10.70;;;23.50;21.30;;;;;;4934513;29;20184;-74
2023/09/10 22:40:12;;;;;;;11.93;11.07;;;23.50;21.30;;;;;;4934259;29;20218;-74
2023/09/10 22:42:37;;;;;;;13.00;12.13;;;23.50;21.40;;;;;;4934200;29;20218;-74
2023/09/10 22:45:04;;;;;;;12.07;11.30;;;23.40;21.50;;;;;;4934623;29;20184;-74
2023/09/10 22:47:29;;;;;;;11.80;11.10;;;23.40;21.50;;;;;;4934449;29;20668;-74
2023/09/10 22:49:55;;;;;;;12.17;11.33;;;23.40;21.70;;;;;;4934184;29;20480;-74
2023/09/10 22:52:20;;;;;;;12.53;11.73;;;23.40;21.90;;;;;;4934486;29;20196;-73